createdAt,value
2018-10-17T00:01:33.380Z,18.90
2018-10-17T00:04:08.548Z,17.50
2018-10-17T00:06:38.094Z,17.13
2018-10-17T00:09:13.959Z,17.03
2018-10-17T00:11:48.802Z,19.33
2018-10-17T00:14:23.977Z,18.73
2018-10-17T00:16:53.971Z,18.50
2018-10-17T00:19:29.196Z,18.50
2018-10-17T00:22:04.303Z,18.07
2018-10-17T00:24:39.365Z,18.47
2018-10-17T00:27:14.653Z,18.60
2018-10-17T00:29:44.876Z,20.33
2018-10-17T00:32:20.024Z,17.47
2018-10-17T00:34:55.895Z,18.53
2018-10-17T00:37:31.065Z,17.13
2018-10-17T00:40:06.707Z,17.67
2018-10-17T00:42:41.653Z,18.93
2018-10-17T00:45:16.779Z,16.70
2018-10-17T00:47:52.098Z,17.47
2018-10-17T00:50:28.173Z,17.70
2018-10-17T00:53:03.167Z,17.43
2018-10-17T00:55:38.254Z,16.60
2018-10-17T00:58:07.984Z,16.83
2018-10-17T01:00:43.542Z,16.60
2018-10-17T01:03:18.482Z,17.50
2018-10-17T01:05:53.577Z,15.10
2018-10-17T01:08:28.806Z,24.80
2018-10-17T01:11:03.960Z,15.40
2018-10-17T01:13:33.585Z,15.50
2018-10-17T01:16:08.965Z,16.90
2018-10-17T01:18:44.226Z,17.00
2018-10-17T01:21:19.488Z,16.30
2018-10-17T01:23:54.638Z,14.93
2018-10-17T01:26:30.079Z,20.30
2018-10-17T01:29:05.582Z,19.27
2018-10-17T01:31:40.555Z,15.70
2018-10-17T01:34:15.749Z,15.40
2018-10-17T01:36:50.640Z,15.47
2018-10-17T01:39:25.920Z,16.17
2018-10-17T01:42:01.215Z,17.90
2018-10-17T01:44:36.046Z,14.17
2018-10-17T01:47:11.747Z,17.40
2018-10-17T01:49:47.505Z,14.13
2018-10-17T01:52:22.736Z,14.80
2018-10-17T01:54:57.854Z,19.50
2018-10-17T01:57:32.950Z,13.70
2018-10-17T02:00:08.038Z,17.27
2018-10-17T02:02:43.744Z,15.17
2018-10-17T02:05:18.754Z,17.77
2018-10-17T02:07:53.720Z,15.13
2018-10-17T02:10:29.759Z,15.43
2018-10-17T02:13:04.905Z,14.73
2018-10-17T02:15:40.555Z,14.20
2018-10-17T02:18:15.900Z,12.83
2018-10-17T02:20:51.413Z,15.50
2018-10-17T02:23:27.201Z,14.43
2018-10-17T02:26:02.544Z,13.50
2018-10-17T02:28:38.240Z,16.00
2018-10-17T02:31:13.288Z,16.80
2018-10-17T02:33:48.841Z,20.67
2018-10-17T02:36:24.225Z,18.40
2018-10-17T02:38:59.558Z,16.83
2018-10-17T02:41:35.611Z,16.63
2018-10-17T02:44:11.385Z,16.00
2018-10-17T02:46:46.499Z,15.23
2018-10-17T02:49:21.517Z,19.00
2018-10-17T02:51:56.740Z,16.00
2018-10-17T02:54:31.796Z,16.90
2018-10-17T02:57:06.920Z,16.73
2018-10-17T02:59:42.030Z,15.63
2018-10-17T03:02:16.889Z,18.87
2018-10-17T03:04:52.035Z,16.00
2018-10-17T03:07:27.906Z,15.97
2018-10-17T03:10:03.210Z,17.27
2018-10-17T03:12:39.118Z,16.03
2018-10-17T03:15:14.205Z,16.53
2018-10-17T03:17:49.443Z,17.03
2018-10-17T03:20:25.349Z,17.60
2018-10-17T03:23:00.509Z,20.80
2018-10-17T03:25:35.590Z,15.77
2018-10-17T03:28:10.738Z,19.10
2018-10-17T03:30:46.270Z,19.57
2018-10-17T03:33:21.665Z,21.60
2018-10-17T03:35:57.073Z,17.07
2018-10-17T03:38:34.334Z,17.17
2018-10-17T03:41:12.122Z,19.47
2018-10-17T03:43:48.975Z,18.37
2018-10-17T03:46:24.069Z,16.77
2018-10-17T03:48:59.622Z,17.07
2018-10-17T03:51:35.957Z,18.00
2018-10-17T03:54:10.790Z,17.00
2018-10-17T03:56:45.729Z,16.60
2018-10-17T03:59:21.125Z,18.87
2018-10-17T04:01:56.237Z,19.53
2018-10-17T04:04:31.377Z,20.03
2018-10-17T04:07:01.075Z,18.23
2018-10-17T04:09:36.416Z,15.47
2018-10-17T04:12:11.731Z,16.23
2018-10-17T04:14:46.942Z,17.53
2018-10-17T04:17:17.385Z,20.47
2018-10-17T04:19:53.155Z,17.57
2018-10-17T04:22:28.749Z,16.50
2018-10-17T04:25:04.153Z,18.17
2018-10-17T04:27:39.794Z,18.47
2018-10-17T04:30:15.151Z,17.77
2018-10-17T04:32:50.412Z,17.70
2018-10-17T04:35:25.322Z,21.90
2018-10-17T04:38:01.114Z,18.33
2018-10-17T04:40:35.889Z,25.80
2018-10-17T04:43:10.875Z,21.03
2018-10-17T04:45:46.014Z,18.23
2018-10-17T04:48:20.965Z,17.87
2018-10-17T04:50:56.209Z,19.37
2018-10-17T04:53:31.127Z,20.00
2018-10-17T04:56:08.057Z,20.77
2018-10-17T04:58:43.948Z,20.30
2018-10-17T05:01:19.401Z,19.00
2018-10-17T05:03:55.343Z,23.93
2018-10-17T05:06:30.658Z,18.23
2018-10-17T05:09:09.304Z,20.40
2018-10-17T05:11:44.246Z,22.87
2018-10-17T05:14:19.589Z,21.13
2018-10-17T05:16:54.856Z,19.60
2018-10-17T05:19:30.074Z,20.50
2018-10-17T05:22:05.661Z,22.07
2018-10-17T05:24:40.615Z,22.00
2018-10-17T05:27:15.873Z,24.30
2018-10-17T05:29:51.112Z,21.03
2018-10-17T05:32:26.318Z,20.80
2018-10-17T05:35:01.611Z,23.50
2018-10-17T05:37:36.696Z,21.53
2018-10-17T05:40:12.271Z,22.50
2018-10-17T05:42:42.140Z,20.83
2018-10-17T05:45:17.175Z,19.37
2018-10-17T05:47:55.258Z,20.70
2018-10-17T05:50:30.424Z,21.50
2018-10-17T05:53:05.745Z,21.50
2018-10-17T05:55:41.702Z,22.10
2018-10-17T05:58:16.812Z,21.90
2018-10-17T06:00:52.667Z,24.40
2018-10-17T06:03:27.972Z,25.57
2018-10-17T06:06:09.666Z,27.67
2018-10-17T06:08:45.159Z,30.00
2018-10-17T06:11:15.410Z,41.23
2018-10-17T06:13:50.550Z,28.53
2018-10-17T06:16:25.790Z,27.90
2018-10-17T06:19:00.690Z,23.90
2018-10-17T06:21:36.393Z,25.37
2018-10-17T06:24:11.622Z,29.63
2018-10-17T06:26:46.824Z,23.40
2018-10-17T06:29:22.489Z,23.50
2018-10-17T06:31:57.457Z,22.23
2018-10-17T06:34:32.471Z,24.50
2018-10-17T06:37:08.042Z,21.53
2018-10-17T06:39:43.132Z,23.97
2018-10-17T06:42:18.575Z,23.40
2018-10-17T06:44:55.065Z,22.23
2018-10-17T06:47:30.079Z,29.07
2018-10-17T06:50:07.114Z,23.53
2018-10-17T06:52:42.273Z,25.33
2018-10-17T06:55:17.496Z,29.83
2018-10-17T06:57:52.958Z,23.13
2018-10-17T07:00:27.804Z,22.77
2018-10-17T07:03:02.925Z,23.90
2018-10-17T07:05:38.240Z,29.40
2018-10-17T07:08:13.922Z,23.00
2018-10-17T07:10:49.417Z,27.40
2018-10-17T07:13:25.350Z,23.97
2018-10-17T07:16:00.688Z,24.70
2018-10-17T07:18:35.820Z,23.20
2018-10-17T07:21:11.102Z,22.83
2018-10-17T07:23:46.494Z,23.83
2018-10-17T07:26:21.447Z,22.00
2018-10-17T07:28:57.110Z,23.30
2018-10-17T07:31:31.897Z,27.90
2018-10-17T07:34:08.016Z,24.63
2018-10-17T07:36:43.417Z,22.90
2018-10-17T07:39:18.524Z,23.77
2018-10-17T07:41:54.077Z,25.77
2018-10-17T07:44:29.238Z,26.70
2018-10-17T07:47:05.642Z,24.93
2018-10-17T07:49:40.650Z,28.00
2018-10-17T07:52:16.041Z,25.80
2018-10-17T07:54:50.931Z,23.50
2018-10-17T07:57:26.190Z,25.43
2018-10-17T08:00:01.419Z,23.43
2018-10-17T08:02:36.769Z,22.07
2018-10-17T08:05:11.678Z,26.97
2018-10-17T08:07:47.997Z,24.37
2018-10-17T08:10:23.448Z,24.93
2018-10-17T08:12:58.547Z,23.50
2018-10-17T08:15:33.946Z,21.77
2018-10-17T08:18:08.871Z,23.37
2018-10-17T08:20:44.231Z,23.17
2018-10-17T08:23:20.184Z,24.63
2018-10-17T08:25:55.042Z,25.90
2018-10-17T08:28:30.500Z,21.57
2018-10-17T08:31:05.616Z,22.47
2018-10-17T08:33:40.721Z,24.33
2018-10-17T08:36:16.216Z,24.50
2018-10-17T08:38:51.127Z,22.83
2018-10-17T08:41:29.533Z,22.43
2018-10-17T08:44:04.628Z,20.87
2018-10-17T08:46:39.774Z,21.97
2018-10-17T08:49:15.519Z,23.83
2018-10-17T08:51:50.800Z,25.90
2018-10-17T08:54:26.099Z,24.77
2018-10-17T08:57:01.056Z,25.30
2018-10-17T08:59:36.026Z,23.50
2018-10-17T09:02:11.187Z,26.90
2018-10-17T09:04:46.515Z,25.80
2018-10-17T09:07:22.112Z,24.47
2018-10-17T09:09:57.357Z,29.17
2018-10-17T09:12:32.393Z,28.23
2018-10-17T09:15:08.428Z,31.23
2018-10-17T09:17:43.681Z,32.00
2018-10-17T09:20:18.828Z,28.27
2018-10-17T09:22:54.785Z,30.37
2018-10-17T09:25:30.124Z,36.77
2018-10-17T09:28:05.534Z,27.27
2018-10-17T09:30:45.714Z,38.93
2018-10-17T09:33:20.546Z,34.37
2018-10-17T09:35:55.679Z,30.50
2018-10-17T09:38:31.507Z,30.00
2018-10-17T09:41:07.141Z,31.80
2018-10-17T09:43:42.257Z,30.70
2018-10-17T09:46:17.716Z,35.63
2018-10-17T09:48:52.736Z,38.97
2018-10-17T09:51:27.622Z,33.37
2018-10-17T09:54:02.614Z,34.90
2018-10-17T09:56:44.429Z,31.93
2018-10-17T09:59:19.357Z,30.90
2018-10-17T10:01:54.816Z,35.07
2018-10-17T10:04:30.026Z,32.40
2018-10-17T10:07:05.024Z,30.87
2018-10-17T10:09:40.174Z,28.97
2018-10-17T10:12:15.580Z,41.33
2018-10-17T10:14:51.176Z,31.00
2018-10-17T10:17:26.004Z,30.30
2018-10-17T10:20:01.263Z,29.63
2018-10-17T10:22:36.102Z,32.10
2018-10-17T10:25:11.091Z,34.40
2018-10-17T10:27:46.264Z,37.60
2018-10-17T10:30:21.358Z,32.00
2018-10-17T10:32:56.711Z,38.10
2018-10-17T10:35:32.215Z,31.20
2018-10-17T10:38:07.364Z,41.90
2018-10-17T10:40:43.033Z,39.87
2018-10-17T10:43:18.406Z,41.60
2018-10-17T10:45:53.284Z,38.43
2018-10-17T10:48:28.751Z,34.80
2018-10-17T10:51:03.788Z,35.13
2018-10-17T10:53:39.142Z,38.70
2018-10-17T10:56:14.250Z,39.10
2018-10-17T10:58:49.489Z,35.00
2018-10-17T11:01:25.167Z,33.57
2018-10-17T11:04:00.219Z,37.40
2018-10-17T11:06:35.518Z,36.93
2018-10-17T11:09:10.786Z,35.27
2018-10-17T11:11:45.702Z,33.83
2018-10-17T11:14:20.948Z,35.67
2018-10-17T11:16:56.522Z,35.20
2018-10-17T11:19:32.506Z,38.00
2018-10-17T11:22:07.588Z,40.13
2018-10-17T11:24:43.076Z,37.37
2018-10-17T11:27:18.797Z,36.60
2018-10-17T11:29:54.018Z,42.33
2018-10-17T11:32:29.167Z,38.13
2018-10-17T11:35:04.798Z,43.00
2018-10-17T11:37:40.061Z,41.50
2018-10-17T11:40:15.583Z,40.70
2018-10-17T11:42:50.932Z,35.57
2018-10-17T11:45:25.621Z,40.43
2018-10-17T11:48:00.781Z,47.63
2018-10-17T11:50:35.773Z,49.33
2018-10-17T11:53:12.139Z,44.63
2018-10-17T11:55:47.327Z,48.50
2018-10-17T11:58:22.375Z,50.73
2018-10-17T12:00:57.523Z,45.90
2018-10-17T12:03:32.835Z,40.63
2018-10-17T12:06:07.939Z,41.30
2018-10-17T12:08:43.497Z,38.40
2018-10-17T12:11:18.838Z,34.80
2018-10-17T12:13:53.833Z,36.20
2018-10-17T12:16:29.155Z,34.97
2018-10-17T12:19:04.394Z,38.37
2018-10-17T12:21:39.581Z,34.10
2018-10-17T12:24:14.583Z,35.07
2018-10-17T12:26:49.780Z,38.50
2018-10-17T12:29:24.631Z,37.27
2018-10-17T12:31:59.506Z,38.23
2018-10-17T12:34:34.674Z,34.13
2018-10-17T12:37:10.701Z,36.30
2018-10-17T12:39:45.759Z,34.30
2018-10-17T12:42:21.042Z,36.20
2018-10-17T12:44:56.480Z,33.00
2018-10-17T12:47:31.639Z,37.33
2018-10-17T12:50:07.799Z,35.87
2018-10-17T12:52:42.934Z,37.17
2018-10-17T12:55:18.131Z,35.67
2018-10-17T12:57:53.358Z,40.77
2018-10-17T13:00:28.472Z,35.57
2018-10-17T13:03:03.763Z,40.47
2018-10-17T13:05:38.769Z,35.73
2018-10-17T13:08:14.313Z,36.07
2018-10-17T13:10:49.300Z,39.10
2018-10-17T13:13:24.597Z,39.53
2018-10-17T13:15:59.342Z,34.63
2018-10-17T13:18:34.419Z,40.67
2018-10-17T13:21:09.788Z,36.70
2018-10-17T13:23:45.665Z,38.63
2018-10-17T13:26:20.690Z,31.77
2018-10-17T13:28:55.947Z,32.00
2018-10-17T13:31:31.518Z,32.27
2018-10-17T13:34:06.923Z,31.70
2018-10-17T13:36:42.094Z,34.70
2018-10-17T13:39:17.220Z,36.97
2018-10-17T13:41:52.573Z,31.63
2018-10-17T13:44:27.819Z,34.50
2018-10-17T13:47:03.355Z,29.87
2018-10-17T13:49:38.896Z,33.90
2018-10-17T13:52:13.809Z,33.00
2018-10-17T13:54:49.161Z,34.90
2018-10-17T13:57:29.800Z,32.73
2018-10-17T14:00:06.417Z,28.43
2018-10-17T14:02:42.392Z,36.17
2018-10-17T14:05:17.384Z,32.67
2018-10-17T14:07:53.286Z,34.33
2018-10-17T14:10:28.831Z,36.73
2018-10-17T14:13:04.280Z,32.63
2018-10-17T14:15:39.646Z,38.83
2018-10-17T14:18:14.465Z,32.13
2018-10-17T14:20:49.597Z,34.97
2018-10-17T14:23:24.421Z,28.40
2018-10-17T14:25:59.430Z,30.93
2018-10-17T14:28:34.270Z,30.33
2018-10-17T14:31:09.354Z,29.80
2018-10-17T14:33:44.246Z,30.20
2018-10-17T14:36:19.347Z,28.23
2018-10-17T14:38:54.677Z,32.40
2018-10-17T14:41:29.590Z,34.90
2018-10-17T14:44:04.516Z,28.90
2018-10-17T14:46:39.608Z,33.33
2018-10-17T14:49:14.292Z,30.80
2018-10-17T14:51:49.321Z,26.27
2018-10-17T14:54:24.281Z,29.40
2018-10-17T14:56:59.559Z,35.33
2018-10-17T14:59:34.727Z,27.37
2018-10-17T15:02:09.952Z,30.50
2018-10-17T15:04:45.963Z,32.93
2018-10-17T15:07:20.847Z,28.10
2018-10-17T15:09:56.548Z,30.00
2018-10-17T15:12:31.887Z,28.63
2018-10-17T15:15:09.108Z,28.10
2018-10-17T15:17:44.125Z,29.70
2018-10-17T15:20:19.149Z,27.93
2018-10-17T15:22:54.771Z,31.77
2018-10-17T15:25:30.241Z,30.00
2018-10-17T15:28:05.608Z,35.43
2018-10-17T15:30:40.745Z,32.83
2018-10-17T15:33:15.867Z,31.03
2018-10-17T15:35:51.181Z,33.30
2018-10-17T15:38:26.000Z,29.07
2018-10-17T15:41:01.100Z,29.37
2018-10-17T15:43:37.372Z,29.40
2018-10-17T15:46:12.329Z,31.40
2018-10-17T15:48:47.932Z,44.30
2018-10-17T15:51:22.726Z,41.60
2018-10-17T15:53:58.258Z,34.13
2018-10-17T15:56:33.520Z,33.40
2018-10-17T15:59:08.535Z,34.83
2018-10-17T16:01:44.147Z,39.20
2018-10-17T16:04:19.048Z,37.97
2018-10-17T16:06:54.163Z,41.70
2018-10-17T16:09:29.407Z,44.50
2018-10-17T16:12:04.870Z,48.13
2018-10-17T16:14:40.409Z,49.90
2018-10-17T16:17:15.687Z,47.63
2018-10-17T16:19:50.681Z,51.20
2018-10-17T16:22:25.520Z,47.60
2018-10-17T16:25:01.498Z,49.10
2018-10-17T16:27:36.360Z,58.37
2018-10-17T16:30:12.178Z,56.33
2018-10-17T16:32:47.990Z,50.67
2018-10-17T16:35:23.499Z,49.10
2018-10-17T16:37:58.571Z,53.77
2018-10-17T16:40:33.709Z,54.37
2018-10-17T16:43:09.475Z,54.33
2018-10-17T16:45:44.599Z,53.00
2018-10-17T16:48:19.856Z,53.27
2018-10-17T16:50:55.462Z,55.03
2018-10-17T16:53:31.218Z,61.07
2018-10-17T16:56:07.035Z,63.80
2018-10-17T16:58:42.320Z,64.03
2018-10-17T17:01:17.417Z,60.50
2018-10-17T17:03:52.449Z,67.53
2018-10-17T17:06:27.549Z,67.13
2018-10-17T17:09:02.737Z,62.37
2018-10-17T17:11:37.925Z,65.30
2018-10-17T17:14:13.006Z,69.10
2018-10-17T17:16:48.390Z,61.23
2018-10-17T17:19:23.127Z,65.63
2018-10-17T17:21:59.274Z,73.33
2018-10-17T17:24:34.753Z,73.67
2018-10-17T17:27:10.309Z,78.50
2018-10-17T17:29:45.932Z,70.23
2018-10-17T17:32:21.215Z,70.27
2018-10-17T17:34:56.436Z,76.33
2018-10-17T17:37:31.192Z,74.03
2018-10-17T17:40:07.673Z,74.43
2018-10-17T17:42:42.574Z,72.57
2018-10-17T17:45:17.547Z,69.30
2018-10-17T17:47:52.446Z,73.47
2018-10-17T17:50:27.558Z,77.53
2018-10-17T17:53:02.981Z,69.53
2018-10-17T17:55:38.212Z,73.40
2018-10-17T17:58:13.613Z,77.10
2018-10-17T18:00:50.344Z,75.13
2018-10-17T18:03:25.529Z,77.73
2018-10-17T18:06:00.670Z,67.87
2018-10-17T18:08:35.687Z,71.37
2018-10-17T18:11:18.954Z,74.40
2018-10-17T18:13:55.954Z,74.27
2018-10-17T18:16:31.007Z,72.60
2018-10-17T18:19:06.056Z,70.13
2018-10-17T18:21:41.126Z,72.30
2018-10-17T18:24:16.422Z,80.53
2018-10-17T18:26:51.801Z,74.53
2018-10-17T18:29:27.216Z,65.60
2018-10-17T18:32:02.632Z,68.23
2018-10-17T18:34:32.618Z,68.73
2018-10-17T18:37:02.843Z,68.67
2018-10-17T18:39:32.655Z,74.47
2018-10-17T18:42:04.032Z,70.37
2018-10-17T18:44:33.635Z,69.37
2018-10-17T18:47:03.609Z,67.37
2018-10-17T18:49:33.688Z,72.17
2018-10-17T18:52:03.042Z,67.40
2018-10-17T18:54:32.744Z,68.80
2018-10-17T18:57:02.426Z,69.93
2018-10-17T18:59:32.106Z,72.03
2018-10-17T19:02:01.826Z,72.47
2018-10-17T19:04:31.410Z,69.80
2018-10-17T19:07:01.255Z,69.43
2018-10-17T19:09:31.204Z,69.80
2018-10-17T19:12:07.319Z,65.87
2018-10-17T19:14:42.559Z,69.60
2018-10-17T19:17:17.937Z,66.10
2018-10-17T19:19:53.553Z,75.73
2018-10-17T19:22:28.872Z,75.30
2018-10-17T19:25:04.102Z,72.20
2018-10-17T19:27:39.963Z,72.33
2018-10-17T19:30:16.233Z,76.70
2018-10-17T19:32:51.293Z,69.00
2018-10-17T19:35:26.672Z,74.47
2018-10-17T19:38:02.163Z,69.90
2018-10-17T19:40:37.155Z,71.70
2018-10-17T19:43:12.341Z,70.77
2018-10-17T19:45:47.734Z,72.03
2018-10-17T19:48:23.222Z,76.07
2018-10-17T19:50:58.683Z,71.77
2018-10-17T19:53:34.153Z,64.70
2018-10-17T19:56:09.435Z,73.90
2018-10-17T19:58:44.658Z,81.90
2018-10-17T20:01:20.617Z,71.17
2018-10-17T20:03:55.643Z,76.13
2018-10-17T20:06:30.661Z,76.73
2018-10-17T20:09:08.432Z,84.27
2018-10-17T20:11:43.391Z,77.90
2018-10-17T20:14:18.630Z,75.53
2018-10-17T20:16:53.760Z,85.93
2018-10-17T20:19:28.807Z,79.47
2018-10-17T20:22:04.971Z,72.40
2018-10-17T20:24:40.199Z,75.37
2018-10-17T20:27:15.582Z,75.00
2018-10-17T20:29:50.951Z,80.40
2018-10-17T20:32:26.079Z,78.60
2018-10-17T20:35:01.276Z,84.60
2018-10-17T20:37:37.269Z,79.47
2018-10-17T20:40:12.355Z,74.70
2018-10-17T20:42:47.255Z,79.93
2018-10-17T20:45:22.572Z,73.77
2018-10-17T20:47:57.865Z,76.10
2018-10-17T20:50:33.359Z,84.70
2018-10-17T20:53:08.827Z,75.60
2018-10-17T20:55:43.901Z,79.60
2018-10-17T20:58:18.793Z,85.73
2018-10-17T21:00:53.977Z,80.87
2018-10-17T21:03:29.102Z,80.40
2018-10-17T21:05:58.458Z,87.63
2018-10-17T21:08:33.736Z,87.77
2018-10-17T21:11:09.417Z,77.30
2018-10-17T21:13:44.498Z,78.33
2018-10-17T21:16:19.631Z,84.97
2018-10-17T21:18:55.042Z,80.97
2018-10-17T21:21:35.204Z,92.90
2018-10-17T21:24:10.051Z,90.23
2018-10-17T21:26:45.120Z,87.63
2018-10-17T21:29:20.430Z,86.73
2018-10-17T21:31:55.261Z,92.97
2018-10-17T21:34:30.681Z,95.73
2018-10-17T21:37:00.457Z,93.80
2018-10-17T21:39:35.565Z,80.00
2018-10-17T21:42:11.115Z,85.13
2018-10-17T21:44:46.083Z,87.23
2018-10-17T21:47:21.570Z,83.70
2018-10-17T21:49:56.762Z,81.23
2018-10-17T21:52:32.217Z,83.03
2018-10-17T21:55:07.634Z,86.20
2018-10-17T21:57:42.870Z,89.27
2018-10-17T22:00:17.940Z,88.90
2018-10-17T22:02:52.898Z,78.57
2018-10-17T22:05:27.719Z,77.80
2018-10-17T22:08:09.423Z,87.57
2018-10-17T22:10:45.038Z,91.00
2018-10-17T22:13:20.415Z,77.60
2018-10-17T22:15:55.363Z,81.53
2018-10-17T22:18:30.665Z,80.80
2018-10-17T22:21:05.786Z,87.90
2018-10-17T22:23:40.629Z,82.93
2018-10-17T22:26:15.823Z,88.63
2018-10-17T22:28:50.762Z,85.97
2018-10-17T22:31:26.011Z,86.97
2018-10-17T22:34:00.958Z,88.23
2018-10-17T22:36:36.242Z,88.63
2018-10-17T22:39:14.905Z,86.13
2018-10-17T22:41:49.755Z,81.43
2018-10-17T22:44:24.533Z,77.90
2018-10-17T22:46:59.618Z,82.40
2018-10-17T22:49:34.729Z,84.37
2018-10-17T22:52:10.020Z,80.87
2018-10-17T22:54:45.292Z,69.17
2018-10-17T22:57:19.996Z,77.37
2018-10-17T22:59:55.135Z,78.47
2018-10-17T23:02:30.270Z,72.37
2018-10-17T23:05:05.786Z,75.10
2018-10-17T23:07:40.643Z,69.00
2018-10-17T23:10:15.675Z,84.43
2018-10-17T23:12:50.616Z,70.77
2018-10-17T23:15:25.916Z,71.80
2018-10-17T23:18:00.642Z,77.30
2018-10-17T23:20:38.632Z,72.63
2018-10-17T23:23:13.862Z,65.37
2018-10-17T23:25:48.757Z,68.67
2018-10-17T23:28:23.537Z,68.60
2018-10-17T23:30:58.577Z,64.50
2018-10-17T23:33:33.538Z,62.30
2018-10-17T23:36:08.847Z,63.57
2018-10-17T23:38:43.997Z,64.10
2018-10-17T23:41:19.339Z,60.97
2018-10-17T23:43:54.384Z,63.90
2018-10-17T23:46:29.563Z,64.00
2018-10-17T23:49:04.715Z,61.53
2018-10-17T23:51:39.643Z,56.83
2018-10-17T23:54:14.694Z,58.10
2018-10-17T23:56:49.786Z,60.23
2018-10-17T23:59:24.908Z,59.17
